15th European Championshionship

2018-07-16 to 2018-07-28, FAI Category 1 event

Task 8 - Overall

2018-07-28 Task 8

Race to Goal 93.8 km

Provisional

No Leg Dist. Id Radius Open Close Coordinates Altitude
1 0.0 km T01 1 m 12:35 16:30 Lat: 41.88038 Lon: -7.72032 1509 m
2 SS 1.9 km W18 5500 m 13:35 18:00 Lat: 41.91119 Lon: -7.70588 1395 m
3 11.5 km G05 35000 m 13:35 18:00 Lat: 41.98099 Lon: -7.41898 420 m
4 27.7 km G05 25000 m 13:35 18:00 Lat: 41.98099 Lon: -7.41898 420 m
5 43.8 km G05 35000 m 13:35 18:00 Lat: 41.98099 Lon: -7.41898 420 m
6 53.9 km G05 28000 m 13:35 18:00 Lat: 41.98099 Lon: -7.41898 420 m
7 ES 91.0 km G22 3000 m 13:35 18:00 Lat: 41.58486 Lon: -6.90711 604 m
8 93.8 km G22 200 m 13:35 18:00 Lat: 41.58486 Lon: -6.90711 604 m
StartGate(s): 13:35

# Id Name Nat Glider Sponsor SS ES Time km/h Distance Dist.
Points
Lead.
Points
Time
Points
Total
1 4 Honorin Hamard M FRA Ozone Enzo 3 Altitude Eyewear - Naviter - CG50 - Club des Archanges - Ozone - Ligue Normandie - Icaro - Soartd 13:35:00 16:10:21 02:35:21 34.4 93.76 402.4 209.2 388.5 1000
2 50 Pierre Remy M FRA Ozone Enzo3 Cg hautes Pyrénées, midi pyrénées, VLB 13:35:00 16:10:44 02:35:44 34.3 93.76 402.4 190.7 378.7 972
2 291 Marco Busetta M ITA Ozone Enzo 3 Bullet speedbar, ilpistacchio.it, AeCI 13:35:00 16:10:28 02:35:28 34.4 93.76 402.4 185.1 384.1 972
4 51 Sergi Claret Estupinya M ESP Gin Boomerang 11 Kasana, Gin Gliders 13:35:00 16:10:45 02:35:45 34.3 93.76 402.4 176.7 378.4 957
5 114 Daniel Tyrkas M GER Ozone Enzo 3 DHV 13:35:00 16:10:45 02:35:45 34.3 93.76 402.4 174.8 378.4 956
5 8 Ernesto Hinestroza M GER Ozone Enzo3 DGFW, DHV, Kontest, talkyoo 13:35:00 16:10:43 02:35:43 34.3 93.76 402.4 174.3 379.0 956
7 11 Xevi Bonet Dalmau M ESP Ozone Enzo 3 Ozone/Alamair/Naviter/Alfapilot 13:35:00 16:10:57 02:35:57 34.3 93.76 402.4 177.3 375.3 955
8 281 Gleb Sukhotskiy M RUS Ozone Enzo3 www.crimea-paragliding.com 13:35:00 16:10:56 02:35:56 34.3 93.76 402.4 174.8 375.6 953
9 1987 Krzysztof Schmidt M POL Ozone Enzo 3 QNT Systemy Informatyczne 13:35:00 16:10:59 02:35:59 34.3 93.76 402.4 174.5 374.9 952
9 22 Biagio Alberto Vitale M ITA Ozone Ozone EnZo 3 AeCI,AIRE Cornizzolo,Casarini,DMD,Corbelli Elettronica,Infopro 13:35:00 16:11:00 02:36:00 34.3 93.76 402.4 175.2 374.6 952
11 300 Christoph Eder M AUT Ozone Enzo 3 DFC-Wildkogelfalken/Eder Guido Installationen 13:35:00 16:10:55 02:35:55 34.3 93.76 402.4 171.3 375.8 950
12 311 Peter Vyparina M SVK Ozone Enzo 3 GAZI statika, SPORTRYSY, Perfectfly, 13:35:00 16:11:15 02:36:15 34.2 93.76 402.4 175.4 371.3 949
12 13 Torsten Siegel M GER GIN GLIDERS Boomerang 11 GIN GLIDERS, pets Premium, Naviter 13:35:00 16:11:02 02:36:02 34.2 93.76 402.4 172.9 374.1 949
12 5 Charles Cazaux M FRA Ozone Enzo 3 Airlinks Academy l Morzine l Ozone l Naviter l ONE Day 13:35:00 16:11:09 02:36:09 34.2 93.76 402.4 173.9 372.6 949
15 1114 Rolf Dale M NOR Ozone Enzo 3 13:35:00 16:11:21 02:36:21 34.2 93.76 402.4 174.7 370.0 947
16 20 Ronny Helgesen M NOR Ozone Enzo 3 Termikk&Rotor A/S 13:35:00 16:11:14 02:36:14 34.2 93.76 402.4 172.4 371.5 946
16 771 Dusan Oroz M SLO Ozone Enzo 3 High Adventure, Naviter, X-Dreamfly 13:35:00 16:11:08 02:36:08 34.2 93.76 402.4 171.0 372.8 946
16 3 Joachim Oberhauser M ITA Ozone Enzo 3 Airecornizzolo-Superfly360-elektroww-Ruedlohg-Xdreamfly-publicolor 13:35:00 16:11:32 02:36:32 34.1 93.76 402.4 176.0 367.8 946
16 44 David Ohlidal M CZE Gin Boomerang 11 LAA ČR,Axis 13:35:00 16:11:20 02:36:20 34.2 93.76 402.4 173.4 370.2 946
20 224 Malin Lobb M GBR Ozone Enzo 3 FLYEO 13:35:00 16:11:09 02:36:09 34.2 93.76 402.4 169.9 372.6 945
21 83 Idris Birch M GBR Gin Boomerang 11 Gin Gliders 13:35:00 16:11:20 02:36:20 34.2 93.76 402.4 171.8 370.2 944
22 211 Stefan Vyparina M SVK Ozone Enzo 3 Gaži statika, Perfectfly, SPORTRYSY, LAA SR 13:35:00 16:11:33 02:36:33 34.1 93.76 402.4 171.5 367.6 942
23 393 Theo Warden M GBR Ozone Enzo 3 Airways airsports,Cross Country Mag,Aerofix 13:35:00 16:12:05 02:37:05 34.0 93.76 402.4 173.1 361.8 937
24 54 Jose Rebelo M POR Ozone Enzo 3 FPVL, Bstoked, CP Linhares da Beira 13:35:00 16:14:39 02:39:39 33.5 93.76 402.4 165.4 339.7 908
25 269 Vladimir Bacanin M SRB Ozone Enzo 2 VS Srbije, Air 037 Krusevac 13:35:00 16:16:20 02:41:20 33.1 93.76 402.4 172.0 327.6 902
26 218 Jurij Vidic M SLO Ozone Enzo 3 Agring doo, Naviter, High Adventure Switzerland, Slovenian Paragliding Team, Air Vuisa 13:35:00 16:15:36 02:40:36 33.3 93.76 402.4 165.2 332.7 900
27 515 Tilen Ceglar M SLO Ozone Enzo 3 NAVITER | High Adventure CH | Factorystore.si 13:35:00 16:15:56 02:40:56 33.2 93.76 402.4 165.9 330.4 899
28 453 Alexander Schalber M AUT Ozone Enzo 3 Flugschule Salzburg / Naviter 13:35:00 16:16:19 02:41:19 33.1 93.76 402.4 162.2 327.7 892
29 1500 Ferdinand Vogel M GER Ozone Enzo 3 13:35:00 16:20:13 02:45:13 32.3 93.76 402.4 172.6 303.6 879
30 41 Eusebio Soares M POR Ozone Enzo 3 Soares & Soares 13:35:00 16:20:13 02:45:13 32.3 93.76 402.4 165.3 303.6 871
31 111 Seiko Fukuoka Naville F FRA Ozone Enzo 3 Addactis, Ozone,Airlinks, La sambuy, Certika,Compass,Oneday,Nana 13:35:00 16:20:19 02:45:19 32.3 93.76 402.4 164.8 303.0 870
32 161 Christian Amon M AUT Ozone Enzo 3 Mac Para-Kortell 13:35:00 16:20:20 02:45:20 32.3 93.76 402.4 160.8 302.9 866
33 7 Luc Armant M FRA Ozone Enzo 3 ozone 13:35:00 16:22:15 02:47:15 32.0 93.76 402.4 168.7 292.3 863
34 10 Meryl Delferriere F FRA Ozone Enzo 3 Ressources parapente/xctracer/adrenagliss 13:35:00 16:23:22 02:48:22 31.7 93.76 402.4 169.0 286.3 858
34 676 Dominik Breitinger M SUI Gin Boomerang 11 GIN-Gliders 13:35:00 16:24:25 02:49:25 31.5 93.76 402.4 175.1 280.9 858
36 1212 Jesus Costa Sanchez M ESP Gin Boomerang 11 Kasana Gin - parapentedesnivel.com -Maditarranean paraglidin.com 13:35:00 16:23:12 02:48:12 31.8 93.76 402.4 166.8 287.2 856
37 12 Julien Wirtz M FRA Ozone Enzo 3 Ozone, Certika 13:35:00 16:24:48 02:49:48 31.5 93.76 402.4 171.5 279.0 853
38 621 Nuno Virgilio M POR Ozone Enzo 3 Flymaster / paragliding.BSTOKED.net / ActionCoin / Flow paragliders 13:35:00 16:24:10 02:49:10 31.6 93.76 402.4 161.8 282.2 846
39 14 Christian Biasi M ITA OZONE Enzo 3 TRENTINO - MONTURA - AIRE TEAM - AECI 13:35:00 16:22:34 02:47:34 31.9 93.76 402.4 152.3 290.6 845
39 236 Andrey Eliseev M RUS Ozone Enzo 3 no 13:35:00 16:23:32 02:48:32 31.7 93.76 402.4 156.7 285.5 845
41 34 Andreas Malecki M GER Ozone Enzo 3 MWZ 24, Flugschule Chiemsee, DHV, 13:35:00 16:20:54 02:45:54 32.2 93.76 402.4 141.7 299.7 844
42 997 Pawel Faron M POL Ozone Zeno Fadróg,Connect,Red Bull,Konstrukcje Żywiec, Salewa, flylite.pl 13:35:00 16:24:28 02:49:28 31.5 93.76 402.4 158.6 280.6 842
43 103 Peter Nägele M GER Ozone Enzo 3 DHV, DCH, yellow cross 13:35:00 16:24:55 02:49:55 31.4 93.76 402.4 160.5 278.4 841
43 102 Michele Boschi M ITA Ozone EnZo 3 Digifly - AireCornizzolo- AeCI 13:35:00 16:23:56 02:48:56 31.6 93.76 402.4 154.8 283.4 841
45 249 Emil Cervenan M SVK Ozone Enzo 3 LAA SR | AXIS PARAGLIDING 13:35:00 16:24:53 02:49:53 31.5 93.76 402.4 157.8 278.5 839
46 63 Francisco Javier Reina M ESP Ozone Enzo 3 Ozone.alamair 13:35:00 16:22:58 02:47:58 31.8 93.76 402.4 147.3 288.4 838
46 316 Marco Littame M ITA Ozone Enzo 3 luca/lisa 13:35:00 16:25:57 02:50:57 31.3 93.76 402.4 162.7 273.2 838
48 31 Carlos Lopes M POR UP Meru www.mineiro.com.pt 13:35:00 16:24:19 02:49:19 31.6 93.76 402.4 152.3 281.4 836
49 741 Stepan Kechedzhi M UKR Ozone Enzo 3 13:35:00 16:25:01 02:50:01 31.4 93.76 402.4 154.5 277.9 835
50 708 Klaudia Bulgakow F POL Ozone EnZo 3 S Lukoil 13:35:00 16:24:38 02:49:38 31.5 93.76 402.4 151.2 279.8 833
51 998 Jacek Gorski M POL Ozone Zeno Alti-paralotnie 13:35:00 16:24:05 02:49:05 31.6 93.76 402.4 147.2 282.6 832
52 1405 Mariusz Wisniowski M POL Ozone Enzo 3 13:35:00 16:24:06 02:49:06 31.6 93.76 402.4 144.9 282.5 830
53 198 Yury Mishanin M RUS Ozone Enzo 3 Федерация спорта СЛА Рязанской области 13:35:00 16:26:33 02:51:33 31.1 93.76 402.4 156.3 270.3 829
54 42 Yael Margelisch F SUI Ozone Enzo 3 GDentanBySutech, Naviter, ONEDAY, Alp'sports thérapies 13:35:00 16:25:15 02:50:15 31.4 93.76 402.4 148.5 276.7 828
55 123 Daria Krasnova F RUS Up Meru UP Paragliders 13:35:00 16:26:57 02:51:57 31.1 93.76 402.4 156.7 268.3 827
56 47 Artem Lozovoy M RUS Ozone Enzo 3 Спортивная федерация спорта СЛА Ленинградской области 13:35:00 16:24:26 02:49:26 31.5 93.76 402.4 141.3 280.8 825
57 273 Zeljko Ovuka M SRB Ozone Enzo 3 VS Srbije, Ares Beograd 13:35:00 16:24:52 02:49:52 31.5 93.76 402.4 143.3 278.6 824
58 1117 Silvia Buzzi Ferraris F ITA Ozone Enzo 3 Pandol-Fly ; VerticalAttitude ; AeCI 13:35:00 16:24:41 02:49:41 31.5 93.76 402.4 137.6 279.5 820
59 69 Stanislav Mayer M CZE Gin Boomerang 11 GIN, Kernun, Certicon, SvazPG, HighPoint, Victorinox 13:35:00 16:24:21 02:49:21 31.6 93.76 402.4 135.1 281.2 819
60 314 Kristian Andersson M NOR Ozone Zeno JK 13:35:00 16:33:32 02:58:32 29.9 93.76 402.4 176.8 238.4 818
61 985 Thomas Brandlehner M AUT Ozone Enzo 3 www.axians.at 13:35:00 16:23:34 02:48:34 31.7 93.76 402.4 128.7 285.3 816
62 35 Tomas Podmanik M SVK Ozone Zeno obec Veľké Kršteňany, LAA SR, REVIS 13:35:00 16:25:03 02:50:03 31.4 93.76 402.4 135.1 277.7 815
63 234 Juho Komulainen M FIN Ozone Enzo 3 Flymigu 13:35:00 16:25:25 02:50:25 31.4 93.76 402.4 133.9 275.9 812
64 26 Julian Robinson M GBR Gin Boomerang 11 UK Airsports 13:35:00 16:25:33 02:50:33 31.3 93.76 402.4 131.6 275.2 809
65 174 Aleksandar Santrac M BIH Ozone Enzo 3 13:35:00 16:25:53 02:50:53 31.3 93.76 402.4 130.3 273.5 806
66 1000 Bogdan Bialka M IRL Ozone Enzo 3 SkyMaster 13:35:00 16:36:19 03:01:19 29.5 93.76 402.4 173.7 226.6 803
67 542 Stanislav Vojtek M SVK Ozone Zeno Funcars,belmar,čau sa bau 13:35:00 16:29:32 02:54:32 30.6 93.76 402.4 139.7 256.2 798
68 222 Federico Nevastro M ITA Gin Boomerang 11 AeCi-Paradelta Club Feltre 13:35:00 16:41:00 03:06:00 28.7 93.76 402.4 125.8 207.7 736
69 282 Bojan Gabersek M SLO Ozone Enzo 3 AVTODELI GABERSEK, IBUS, ASKELA, COMPANI 13:35:00 16:43:29 03:08:29 28.4 93.76 402.4 121.6 198.0 722
70 40 Pavel Iker M CZE Gin Boomerang 11 ZICO a.s.; LAA ČR; GIN ČR 13:35:00 16:44:29 03:09:29 28.2 93.76 402.4 117.6 194.2 714
71 717 Jan Richard Hansen M NOR Ozone Enzo 3 Epizoom Multimedia Design 13:35:00 16:45:27 03:10:27 28.1 93.76 402.4 111.0 190.6 704
72 1611 Ricardo Rodrigues M POR Ozone Zeno paragliding.BSTOKED.net; Azores Airlines; BGD 13:35:00 16:47:03 03:12:03 27.8 93.76 402.4 115.2 184.6 702
73 401 Rasa Grigoraitiene F LTU Ozone Zeno 13:35:00 16:46:01 03:11:01 28.0 93.76 402.4 96.4 188.5 687
74 62 Petra Slivova F CZE Gin Boomerang 11 GIN GLIDERS, LAA CR 13:35:00 16:44:26 03:09:26 28.2 93.76 402.4 88.2 194.4 685
75 56 FELIX Rodriguez Fernández M ESP Ozone Enzo 3 OZONE-NACEX-CERTIKA-AIR SPORTS CHAMONIX-JULBO 13:35:00 16:45:07 03:10:07 28.1 93.76 402.4 81.5 191.8 676
76 1177 Antoni Buljan M CRO Ozone Zeno Absolute adventure 13:35:00 17:01:21 03:26:21 25.9 93.76 402.4 106.7 134.6 644
77 66 Jessica Cox F GBR Ozone Zeno Fly Sussex Paragliding 13:35:00 17:00:08 03:25:08 26.0 93.76 402.4 100.5 138.7 642
78 313 Quentin Debras M BEL BGD Diva Tilman SA - BGD - LaRoch'Ailes - Willame Motors - Kia Belux Atom 13:35:00 16:58:11 03:23:11 26.3 93.76 402.4 86.5 145.2 634
79 77 Jan Jares M CZE Up Meru/XR7 eHAMnet UP-czech, Flyskin, LAAcr 13:35:00 16:54:15 03:19:15 26.8 93.76 402.4 70.1 158.8 631
80 261 Konstiantyn Matusevych M UKR Ozone Zeno "Antonov" company, Nearbirds 13:35:00 16:58:58 03:23:58 26.2 93.76 402.4 64.3 142.6 609
80 340 Nanda Walliser F SUI Up Meru UP Paragliders & High-Adventure 13:35:00 17:06:37 03:31:37 25.3 93.76 402.4 89.2 117.4 609
82 121 Gyula Fichtinger M HUN Ozone Zeno Ozone Hungary 13:35:00 17:07:52 03:32:52 25.1 93.76 402.4 84.5 113.4 600
83 16 Primoz Susa M SLO Ozone Enzo 3 camp-gabrje.com, naviter.com, High Adventure Switzerland 13:35:00 16:11:10 02:36:10 34.2 93.32 400.5 177.8 578
84 45 Adrian Hachen M SUI Gin Gliders Boomerang 11 GIN Gliders 13:35:00 16:11:00 02:36:00 34.3 93.36 400.7 174.0 575
85 68 Petr Kostrhun M CZE Gin Boomerang 11 Atlantis-limousine-service.cz 13:35:00 16:15:16 02:40:16 33.3 91.24 391.6 174.4 566
86 906 Aleksei Korobkov M RUS Ozone Enzo 3 Теплый Дом 13:35:00 80.90 347.2 157.9 505
87 181 Sami Pitkakoski M FIN Ozone Zeno 13:35:00 84.72 363.6 131.3 495
88 266 Peter Budai M HUN Ozone Zeno 13:35:00 84.30 361.8 109.2 471
89 191 Mirvad Zenuni M BIH Ozone Zeno Muscle Freak 13:35:00 83.91 360.1 81.2 441
90 1 Michael Sigel M SUI GIN Boomerang 11 Gin Gliders, JACK&JONES, Naviter 13:35:00 63.44 272.3 104.5 377
91 512 Vitalii Umanskyi M UKR Ozone Enzo 3 13:35:00 75.41 323.6 324
92 815 Katalin Juhasz F HUN Ozone Zeno fAirPlay, lortech, ASE 13:35:00 63.16 271.1 49.4 321
93 1771 Nils-Aake Carlsson M SWE Ozone Enzo 3 FlyItParagliding.com 13:35:00 74.55 319.9 320
94 24 Damir Habek M CRO Niviuk Icepeak 8 13:35:00 64.75 277.9 33.5 311
95 98 Simon Arnold M AUT Ozone Enzo 3 flywear 13:35:00 55.88 239.8 54.1 294
96 871 Paulo Silva M POR Ozone Zeno Azores Airlines 13:35:00 57.18 245.4 43.4 289
97 156 Luis Linde M ESP Ozone Enzo 2 Niviuk - Skywalk España - Draco 13:35:00 57.34 246.1 35.5 282
97 33 Balan Antoniu Cristian M ROU Ozone Zeno www.AirSports.ro 13:35:00 58.12 249.4 32.1 282
99 500 Jost Napret M SLO Ozone Enzo 3 NAVITER I High Adventure Switzerland 13:35:00 52.90 227.0 37.0 264
100 2 Tudor Dorobantu M ROU Niviuk Klimber P Tellur 13:35:00 52.51 225.3 16.4 242
101 1295 Philipp Haag M GER Gin Boomerang 11 B.A.H Gruppe/ Maier Sports GmbH 13:35:00 50.13 215.1 24.1 239
102 48 Tor Jansson M SWE Ozone Zeno velodrom.se skysport.se 13:35:00 51.13 219.4 8.9 228
103 84 Clement Latour M FRA Ozone Enzo 3 FFVL SUPAIR 13:35:00 52.33 224.6 225
104 32 Evgeny Kalashnik M UKR Gin Boom 11 Kalashnik 13:35:00 50.64 217.3 217
105 575 Michael Maurer M SUI GinGliders Boomerang11 GinGliders/ LaSportiva / cloud-7.ch / ONEDAY 13:35:00 47.91 205.6 6.6 212
106 504 Tadej Krevh M SLO Ozone Enzo3 Naviter.com, High Adventure 13:35:00 48.92 209.9 210
107 317 Srdjan Kesic M SRB Ozone Enzo 3 VS Srbije, AK Novi Sad 13:35:00 48.68 208.9 209
108 244 Thibault Voglet M BEL Ozone Enzo 2 Fou d´l, Profondeville, Les 7 Meuses 13:35:00 47.87 205.4 205
109 117 Pierre Therer M BEL Ozone Enzo 2 AirDeck 13:35:00 47.19 202.5 203
110 9 Razvan Nitoiu M ROU Ozone Delta 3 retrofit.ro 13:35:00 46.97 201.6 202
110 21 Dana Kelemen F ROU Ozone Alpina 2 13:35:00 46.97 201.6 202
110 1119 Mari-Anne Aanes F NOR Ozone Zeno 13:35:00 47.14 202.3 202
110 173 Birkan Paçali M TUR Ozone Zeno THK 13:35:00 47.11 202.2 202
114 338 Stephan Morgenthaler M SUI Ozone Enzo 3 13:35:00 46.89 201.2 201
115 1717 Umut Akturk M TUR Ozone Enzo 3 Turkish Aeronautical Association 13:35:00 46.53 199.7 200
116 251 Martin Long M GBR Ozone Zeno www.flysussex.com 13:35:00 44.25 189.9 190
116 399 Dominika Kasieczko F POL Ozone Zeno Ozone Polska, GRAVITACJA 13:35:00 44.30 190.1 190
118 262 Ewa Korneluk-Guzy F GER Ozone Zeno paraclinic.at, Sziols 13:35:00 40.71 174.7 175
118 17 Ulrich Prinz M GER Ozone Enzo 3 Ozone 13:35:00 40.71 174.7 175
120 713 Antonio Tabanez Fonseca M POR Ozone Enzo 3 FPVL; AGROL S.A; C.M. Lousã 13:35:00 39.71 170.4 170
121 404 Antun Lovrec M CRO Ozone Zeno 13:35:00 38.93 167.1 167
122 78 Eemeli Aittokallio M FIN Ozone Zeno 13:35:00 37.46 160.7 161
123 6 Yvonne Dathe F GER UP Meru WinMental.de, FlyTeam 13:35:00 36.25 155.6 156
124 212 Etienne Coupez M LUX Ozone Enzo 3 13:35:00 34.46 147.9 148
125 29 Romana Schubertova F SVK UP Trango XC3 UP Slovakia 13:35:00 34.33 147.3 147
126 119 Stanislav Klikar M CZE Ozone Enzo 2 Axispara.cz, LaaCR, pgkb.cz 13:35:00 32.08 137.7 138
127 375 Srdjan Ristanovic M SRB Ozone Enzo 3 VS Srbije, Xperience360 13:35:00 31.42 134.8 135
128 1171 Hakan Lindqvist M SWE Ozone Zeno skysport.se 13:35:00 31.11 133.5 134
129 15 Daniel Pop M ROU BGD Diva BGD 13:35:00 30.88 132.5 133
130 46 Kalle Ojamo M FIN Ozone Zeno Greenled.fi 13:35:00 17.68 75.9 76
131 71 Francis De Bruyn M BEL Ozone Enzo 3 13:35:00 16.51 70.9 71
131 384 Andrew Williams M GBR Ozone Enzo 3 ESCAPE XC 13:35:00 16.45 70.6 71
133 541 Michal Gierlach M POL Ozone Enzo 3 XC Spike, SPBW, Airvuisa 13:35:00 14.90 63.9 64
134 3137 Alexey Bystritskiy M RUS Ozone Enzo 3 asa-fly.ru 13:35:00 14.58 62.6 63
135 205 Ari Sahlstrom M FIN Gin Boomerang 11 Vauhtifarmi Oy 13:35:00 13.88 59.6 60
136 235 John Herman Sorheim M NOR Ozone Enzo 3 Kystdesign 13:35:00 13.77 59.1 59
137 248 Volodymyr Perevalov M UKR Ozone Enzo3 NearBirds 13:35:00 13.62 58.4 58
137 1011 Lara Leban F SLO NOVA Sector Naviter, Adrenalin paragliding team, Triple seven 13:35:00 13.58 58.3 58
139 333 Predrag Neskovic M SRB Ozone Zeno VS Srbije, Pegaz Ivanjica, www.aquamonteservice.com 13:35:00 12.35 53.0 53
140 201 Johanna Hamne F SWE Ozone Zeno Odd Molly 13:35:00 12.05 51.7 52
140 27 Zoran Boskovic M CRO Ozone Zeno Moa 13:35:00 12.03 51.6 52
142 377 Elisabeth Egger F AUT Ozone Zeno S Egger BEST-Box BetriebsgmbH 13:35:00 11.71 50.3 50
142 353 Aron Michiels M BEL Ozone Enzo 3 FreeToFly 13:35:00 11.70 50.2 50
144 539 Antanas Jakucevicius M LTU Ozone Zeno Nemanta 13:35:00 7.28 31.2 31
145 81 Florin Iftinca M ROU Swing Nexus 13:35:00 6.58 28.3 28
146 49 Silvia de Oliveira Ventura F POR NOVA Triton 2 Light XS NOVA, WIND 13:35:00 6.34 27.2 27
147 25 Jaroslav Janduch M SVK Ozone Enzo 2 Laa.sk Premat,s.r.o. 5.00 21.5 22

Pilots absent from task (ABS)

Id Name
19 Kimmo Korhonen
28 Marek Janosik
707 Remko Bolt

Pilots not yet processed (NYP)

Id Name

Task statistics

param value
ss_distance 89.062
task_distance 93.757
launch_to_ess_distance 90.957
no_of_pilots_present 147
no_of_pilots_flying 147
no_of_pilots_lo 65
no_of_pilots_reaching_nom_dist 94
no_of_pilots_reaching_es 85
no_of_pilots_reaching_goal 82
sum_flown_distance 10435.043
best_dist 93.757
best_time 2.58916666666667
worst_time 3.54777777777778
no_of_pilots_in_competition 150
no_of_pilots_landed_before_stop 0
sum_dist_over_min 9703.13199999999
sum_real_dist_over_min 9703.13199999999
sum_flown_distances 10435.043
best_real_dist 93.757
last_start_time 2018-07-28T13:35:00+01:00
first_start_time 2018-07-28T13:35:00+01:00
first_finish_time 2018-07-28T16:10:21+01:00
max_time_to_get_time_points 4.19825543571164
no_of_pilots_with_time_points 82
goalratio 0.557823129251701
arrival_weight 0
departure_weight 0
leading_weight 0.209172646538369
time_weight 0.3884634864284
distance_weight 0.402363867033231
smallest_leading_coefficient 1.82132921641471
available_points_distance 402.363867033231
available_points_time 388.4634864284
available_points_departure 0
available_points_leading 209.172646538369
available_points_arrival 0
time_validity 1
launch_validity 1
distance_validity 1
stop_validity 1
day_quality 1
ftv_day_validity 1
time_points_stop_correction 0

Scoring formula settings

param value
id GAP2018
min_dist 5
nom_dist 60
nom_time 1.5
nom_launch 0.96
nom_goal 0.3
day_quality_override 0
bonus_gr 4
jump_the_gun_factor 0
jump_the_gun_max 0
normalize_1000_before_day_quality 0
time_points_if_not_in_goal 0
use_1000_points_for_max_day_quality 0
use_arrival_position_points 0
use_arrival_time_points 0
use_departure_points 0
use_difficulty_for_distance_points 0
use_distance_points 1
use_distance_squared_for_LC 1
use_leading_points 1
use_semi_circle_control_zone_for_goal_line 1
use_time_points 1
scoring_altitude QNH
final_glide_decelerator none
no_final_glide_decelerator_reason
min_time_span_for_valid_task 60
score_back_time 5
use_proportional_leading_weight_if_nobody_in_goal 1
leading_weight_factor 2
turnpoint_radius_tolerance 0.002
Report created: 2018-07-28T19:29:52+01:00

FS development, maintenance and support by